Enter the Airport ICAO Code

Search by Airport or City

Current Weather

SARE | Resistencia International Airport

Resistencia, Chaco, Argentina

Last Update 59 Minutes Ago

Clear Sky

Temperature of 17 ēC

Light Winds from SouthWest

Temperature

17 ēC

Dew Point Temperature

16 ēC

Relative Humidity

93.87 %

Wind Direction

SouthWest (230ē, Without Significant Variations)

Wind Velocity

4 km/h (02 kt)

Gusts

None

Visibility

No Significant Reductions

Sea Level Pressure

1013 hPa (Hectopascals)

Layers of Clouds

None

METAR SARE 090900Z 23002KT CAVOK 17/16 Q1013

Weather Forecast

SARE | Resistencia International Airport

Resistencia, Chaco, Argentina

Forecast valid for the next 20 Hours

From now on it is expected:

Clear Sky

Light to Moderate Winds from South

Maximum Temperature

35 ēC in 8 Hours

Minimum Temperature

16 ēC in 0 Hours

TAF SARE 090500Z 0906/1006 20005KT CAVOK TX35/0918Z TN16/0910Z PROB30 0907/0911 3000 BR NSC